sensor_id;sensor_type;location;lat;lon;timestamp;temperature;humidity
21348;DHT22;66030;53.582;9.746;2022-12-18T00:02:05;-2.30;99.90
21348;DHT22;66030;53.582;9.746;2022-12-18T00:04:33;-2.40;99.90
21348;DHT22;66030;53.582;9.746;2022-12-18T00:07:00;-2.40;99.90
21348;DHT22;66030;53.582;9.746;2022-12-18T00:09:29;-2.40;99.90
21348;DHT22;66030;53.582;9.746;2022-12-18T00:12:06;-2.40;99.90
21348;DHT22;66030;53.582;9.746;2022-12-18T00:14:41;-2.40;99.90
21348;DHT22;66030;53.582;9.746;2022-12-18T00:17:13;-2.40;99.90
21348;DHT22;66030;53.582;9.746;2022-12-18T00:19:43;-2.40;99.90
21348;DHT22;66030;53.582;9.746;2022-12-18T00:22:11;-2.40;99.90
21348;DHT22;66030;53.582;9.746;2022-12-18T00:24:40;-2.40;99.90
21348;DHT22;66030;53.582;9.746;2022-12-18T00:27:08;-2.40;99.90
21348;DHT22;66030;53.582;9.746;2022-12-18T00:29:36;-2.40;99.90
21348;DHT22;66030;53.582;9.746;2022-12-18T00:32:04;-2.50;99.90
21348;DHT22;66030;53.582;9.746;2022-12-18T00:34:33;-2.70;99.90
21348;DHT22;66030;53.582;9.746;2022-12-18T00:37:01;-2.60;99.90
21348;DHT22;66030;53.582;9.746;2022-12-18T00:39:29;-2.60;99.90
21348;DHT22;66030;53.582;9.746;2022-12-18T00:41:57;-2.40;99.90
21348;DHT22;66030;53.582;9.746;2022-12-18T00:44:42;-2.40;99.90
21348;DHT22;66030;53.582;9.746;2022-12-18T00:47:13;-2.40;99.90
21348;DHT22;66030;53.582;9.746;2022-12-18T00:49:43;-2.30;99.90
21348;DHT22;66030;53.582;9.746;2022-12-18T00:52:10;-2.40;99.90
21348;DHT22;66030;53.582;9.746;2022-12-18T00:54:38;-2.40;99.90
21348;DHT22;66030;53.582;9.746;2022-12-18T00:57:06;-2.40;99.90
21348;DHT22;66030;53.582;9.746;2022-12-18T00:59:34;-2.50;99.90
21348;DHT22;66030;53.582;9.746;2022-12-18T01:02:02;-2.50;99.90
21348;DHT22;66030;53.582;9.746;2022-12-18T01:04:31;-2.50;99.90
21348;DHT22;66030;53.582;9.746;2022-12-18T01:07:01;-2.40;99.90
21348;DHT22;66030;53.582;9.746;2022-12-18T01:09:28;-2.40;99.90
21348;DHT22;66030;53.582;9.746;2022-12-18T01:11:56;-2.50;99.90
21348;DHT22;66030;53.582;9.746;2022-12-18T01:14:24;-2.50;99.90
21348;DHT22;66030;53.582;9.746;2022-12-18T01:16:52;-2.50;99.90
21348;DHT22;66030;53.582;9.746;2022-12-18T01:19:20;-2.50;99.90
21348;DHT22;66030;53.582;9.746;2022-12-18T01:21:48;-2.40;99.90
21348;DHT22;66030;53.582;9.746;2022-12-18T01:24:17;-2.40;99.90
21348;DHT22;66030;53.582;9.746;2022-12-18T01:26:45;-2.40;99.90
21348;DHT22;66030;53.582;9.746;2022-12-18T01:29:13;-2.40;99.90
21348;DHT22;66030;53.582;9.746;2022-12-18T01:31:41;-2.40;99.90
21348;DHT22;66030;53.582;9.746;2022-12-18T01:34:09;-2.40;99.90
21348;DHT22;66030;53.582;9.746;2022-12-18T01:36:39;-2.30;99.90
21348;DHT22;66030;53.582;9.746;2022-12-18T01:39:10;-2.40;99.90
21348;DHT22;66030;53.582;9.746;2022-12-18T01:41:40;-2.40;99.90
21348;DHT22;66030;53.582;9.746;2022-12-18T01:44:58;-2.50;99.90
21348;DHT22;66030;53.582;9.746;2022-12-18T01:47:38;-2.50;99.90
21348;DHT22;66030;53.582;9.746;2022-12-18T01:50:09;-2.50;99.90
21348;DHT22;66030;53.582;9.746;2022-12-18T01:52:40;-2.60;99.90
21348;DHT22;66030;53.582;9.746;2022-12-18T01:55:09;-2.60;99.90
21348;DHT22;66030;53.582;9.746;2022-12-18T01:57:40;-2.50;99.90
21348;DHT22;66030;53.582;9.746;2022-12-18T02:00:12;-2.50;99.90
21348;DHT22;66030;53.582;9.746;2022-12-18T02:02:41;-2.60;99.90
21348;DHT22;66030;53.582;9.746;2022-12-18T02:05:12;-2.60;99.90
21348;DHT22;66030;53.582;9.746;2022-12-18T02:07:48;-2.50;99.90
21348;DHT22;66030;53.582;9.746;2022-12-18T02:10:26;-2.60;99.90
21348;DHT22;66030;53.582;9.746;2022-12-18T02:13:01;-2.60;99.90
21348;DHT22;66030;53.582;9.746;2022-12-18T02:15:36;-2.60;99.90
21348;DHT22;66030;53.582;9.746;2022-12-18T02:18:10;-2.70;99.90
21348;DHT22;66030;53.582;9.746;2022-12-18T02:20:43;-2.80;99.90
21348;DHT22;66030;53.582;9.746;2022-12-18T02:23:21;-2.90;99.90
21348;DHT22;66030;53.582;9.746;2022-12-18T02:26:18;-2.90;99.90
21348;DHT22;66030;53.582;9.746;2022-12-18T02:28:51;-3.00;99.90
21348;DHT22;66030;53.582;9.746;2022-12-18T02:31:23;-3.00;99.90
21348;DHT22;66030;53.582;9.746;2022-12-18T02:33:56;-2.90;99.90
21348;DHT22;66030;53.582;9.746;2022-12-18T02:36:29;-3.00;99.90
21348;DHT22;66030;53.582;9.746;2022-12-18T02:39:00;-3.10;99.90
21348;DHT22;66030;53.582;9.746;2022-12-18T02:41:32;-3.10;99.90
21348;DHT22;66030;53.582;9.746;2022-12-18T02:44:09;-3.00;99.90
21348;DHT22;66030;53.582;9.746;2022-12-18T02:46:49;-2.90;99.90
21348;DHT22;66030;53.582;9.746;2022-12-18T02:49:31;-3.10;99.90
21348;DHT22;66030;53.582;9.746;2022-12-18T02:52:19;-3.20;99.90
21348;DHT22;66030;53.582;9.746;2022-12-18T02:55:00;-3.10;99.90
21348;DHT22;66030;53.582;9.746;2022-12-18T02:57:40;-3.20;99.90
21348;DHT22;66030;53.582;9.746;2022-12-18T03:00:12;-3.20;99.90
21348;DHT22;66030;53.582;9.746;2022-12-18T03:02:46;-3.10;99.90
21348;DHT22;66030;53.582;9.746;2022-12-18T03:05:18;-3.00;99.90
21348;DHT22;66030;53.582;9.746;2022-12-18T03:07:51;-3.10;99.90
21348;DHT22;66030;53.582;9.746;2022-12-18T03:10:25;-3.20;99.90
21348;DHT22;66030;53.582;9.746;2022-12-18T03:13:00;-3.00;99.90
21348;DHT22;66030;53.582;9.746;2022-12-18T03:18:27;-3.20;99.90
21348;DHT22;66030;53.582;9.746;2022-12-18T03:20:59;-3.40;99.90
21348;DHT22;66030;53.582;9.746;2022-12-18T03:23:33;-3.50;99.90
21348;DHT22;66030;53.582;9.746;2022-12-18T03:26:06;-3.40;99.90
21348;DHT22;66030;53.582;9.746;2022-12-18T03:28:39;-3.50;99.90
21348;DHT22;66030;53.582;9.746;2022-12-18T03:31:10;-3.50;99.90
21348;DHT22;66030;53.582;9.746;2022-12-18T03:33:41;-3.50;99.90
21348;DHT22;66030;53.582;9.746;2022-12-18T03:36:10;-3.50;99.90
21348;DHT22;66030;53.582;9.746;2022-12-18T03:38:38;-3.50;99.90
21348;DHT22;66030;53.582;9.746;2022-12-18T03:41:11;-3.50;99.90
21348;DHT22;66030;53.582;9.746;2022-12-18T03:43:49;-3.50;99.90
21348;DHT22;66030;53.582;9.746;2022-12-18T03:46:26;-3.50;99.90
21348;DHT22;66030;53.582;9.746;2022-12-18T03:49:02;-3.60;99.90
21348;DHT22;66030;53.582;9.746;2022-12-18T03:51:39;-3.50;99.90
21348;DHT22;66030;53.582;9.746;2022-12-18T03:54:09;-3.50;99.90
21348;DHT22;66030;53.582;9.746;2022-12-18T03:56:40;-3.60;99.90
21348;DHT22;66030;53.582;9.746;2022-12-18T03:59:11;-3.50;99.90
21348;DHT22;66030;53.582;9.746;2022-12-18T04:01:43;-3.50;99.90
21348;DHT22;66030;53.582;9.746;2022-12-18T04:04:14;-3.40;99.90
21348;DHT22;66030;53.582;9.746;2022-12-18T04:06:43;-3.40;99.90
21348;DHT22;66030;53.582;9.746;2022-12-18T04:09:13;-3.50;99.90
21348;DHT22;66030;53.582;9.746;2022-12-18T04:11:41;-3.50;99.90
21348;DHT22;66030;53.582;9.746;2022-12-18T04:14:12;-3.60;99.90
21348;DHT22;66030;53.582;9.746;2022-12-18T04:16:44;-3.50;99.90
21348;DHT22;66030;53.582;9.746;2022-12-18T04:19:12;-3.60;99.90
21348;DHT22;66030;53.582;9.746;2022-12-18T04:21:40;-3.50;99.90
21348;DHT22;66030;53.582;9.746;2022-12-18T04:24:08;-3.50;99.90
21348;DHT22;66030;53.582;9.746;2022-12-18T04:26:36;-3.50;99.90
21348;DHT22;66030;53.582;9.746;2022-12-18T04:29:04;-3.50;99.90
21348;DHT22;66030;53.582;9.746;2022-12-18T04:31:34;-3.40;99.90
21348;DHT22;66030;53.582;9.746;2022-12-18T04:34:02;-3.40;99.90
21348;DHT22;66030;53.582;9.746;2022-12-18T04:36:30;-3.30;99.90
21348;DHT22;66030;53.582;9.746;2022-12-18T04:38:58;-3.30;99.90
21348;DHT22;66030;53.582;9.746;2022-12-18T04:41:26;-3.30;99.90
21348;DHT22;66030;53.582;9.746;2022-12-18T04:43:54;-3.30;99.90
21348;DHT22;66030;53.582;9.746;2022-12-18T04:46:22;-3.30;99.90
21348;DHT22;66030;53.582;9.746;2022-12-18T04:48:51;-3.40;99.90
21348;DHT22;66030;53.582;9.746;2022-12-18T04:51:19;-3.60;99.90
21348;DHT22;66030;53.582;9.746;2022-12-18T04:53:52;-3.60;99.90
21348;DHT22;66030;53.582;9.746;2022-12-18T04:56:20;-3.50;99.90
21348;DHT22;66030;53.582;9.746;2022-12-18T04:58:48;-3.50;99.90
21348;DHT22;66030;53.582;9.746;2022-12-18T05:01:17;-3.50;99.90
21348;DHT22;66030;53.582;9.746;2022-12-18T05:03:46;-3.60;99.90
21348;DHT22;66030;53.582;9.746;2022-12-18T05:06:15;-3.50;99.90
21348;DHT22;66030;53.582;9.746;2022-12-18T05:08:43;-3.50;99.90
21348;DHT22;66030;53.582;9.746;2022-12-18T05:11:13;-3.60;99.90
21348;DHT22;66030;53.582;9.746;2022-12-18T05:13:43;-3.60;99.90
21348;DHT22;66030;53.582;9.746;2022-12-18T05:16:12;-3.60;99.90
21348;DHT22;66030;53.582;9.746;2022-12-18T05:18:40;-3.60;99.90
21348;DHT22;66030;53.582;9.746;2022-12-18T05:21:09;-3.60;99.90
21348;DHT22;66030;53.582;9.746;2022-12-18T05:23:38;-3.60;99.90
21348;DHT22;66030;53.582;9.746;2022-12-18T05:26:07;-3.70;99.90
21348;DHT22;66030;53.582;9.746;2022-12-18T05:28:36;-3.60;99.90
21348;DHT22;66030;53.582;9.746;2022-12-18T05:31:04;-3.60;99.90
21348;DHT22;66030;53.582;9.746;2022-12-18T05:33:33;-3.70;99.90
21348;DHT22;66030;53.582;9.746;2022-12-18T05:36:03;-3.70;99.90
21348;DHT22;66030;53.582;9.746;2022-12-18T05:38:33;-3.80;99.90
21348;DHT22;66030;53.582;9.746;2022-12-18T05:41:04;-3.80;99.90
21348;DHT22;66030;53.582;9.746;2022-12-18T05:43:34;-3.60;99.90
21348;DHT22;66030;53.582;9.746;2022-12-18T05:46:04;-3.60;99.90
21348;DHT22;66030;53.582;9.746;2022-12-18T05:48:33;-3.70;99.90
21348;DHT22;66030;53.582;9.746;2022-12-18T05:51:05;-3.70;99.90
21348;DHT22;66030;53.582;9.746;2022-12-18T05:53:35;-3.70;99.90
21348;DHT22;66030;53.582;9.746;2022-12-18T05:56:07;-3.70;99.90
21348;DHT22;66030;53.582;9.746;2022-12-18T05:58:36;-3.80;99.90
21348;DHT22;66030;53.582;9.746;2022-12-18T06:01:09;-3.80;99.90
21348;DHT22;66030;53.582;9.746;2022-12-18T06:03:37;-3.70;99.90
21348;DHT22;66030;53.582;9.746;2022-12-18T06:06:13;-3.60;99.90
21348;DHT22;66030;53.582;9.746;2022-12-18T06:08:41;-3.60;99.90
21348;DHT22;66030;53.582;9.746;2022-12-18T06:11:17;-3.60;99.90
21348;DHT22;66030;53.582;9.746;2022-12-18T06:13:46;-3.60;99.90
21348;DHT22;66030;53.582;9.746;2022-12-18T06:16:14;-3.60;99.90
21348;DHT22;66030;53.582;9.746;2022-12-18T06:18:42;-3.60;99.90
21348;DHT22;66030;53.582;9.746;2022-12-18T06:21:10;-3.60;99.90
21348;DHT22;66030;53.582;9.746;2022-12-18T06:23:38;-3.40;99.90
21348;DHT22;66030;53.582;9.746;2022-12-18T06:26:07;-3.40;99.90
21348;DHT22;66030;53.582;9.746;2022-12-18T06:28:37;-3.30;99.90
21348;DHT22;66030;53.582;9.746;2022-12-18T06:31:06;-3.30;99.90
21348;DHT22;66030;53.582;9.746;2022-12-18T06:33:37;-3.30;99.90
21348;DHT22;66030;53.582;9.746;2022-12-18T06:36:08;-3.40;99.90
21348;DHT22;66030;53.582;9.746;2022-12-18T06:38:41;-3.50;99.90
21348;DHT22;66030;53.582;9.746;2022-12-18T06:41:12;-3.40;99.90
21348;DHT22;66030;53.582;9.746;2022-12-18T06:43:42;-3.50;99.90
21348;DHT22;66030;53.582;9.746;2022-12-18T06:46:11;-3.40;99.90
21348;DHT22;66030;53.582;9.746;2022-12-18T06:48:41;-3.30;99.90
21348;DHT22;66030;53.582;9.746;2022-12-18T06:51:09;-3.30;99.90
21348;DHT22;66030;53.582;9.746;2022-12-18T06:53:37;-3.20;99.90
21348;DHT22;66030;53.582;9.746;2022-12-18T06:56:07;-3.30;99.90
21348;DHT22;66030;53.582;9.746;2022-12-18T06:58:37;-3.50;99.90
21348;DHT22;66030;53.582;9.746;2022-12-18T07:01:08;-3.50;99.90
21348;DHT22;66030;53.582;9.746;2022-12-18T07:03:36;-3.60;99.90
21348;DHT22;66030;53.582;9.746;2022-12-18T07:06:05;-3.60;99.90
21348;DHT22;66030;53.582;9.746;2022-12-18T07:08:33;-3.50;99.90
21348;DHT22;66030;53.582;9.746;2022-12-18T07:11:04;-3.60;99.90
21348;DHT22;66030;53.582;9.746;2022-12-18T07:13:32;-3.40;99.90
21348;DHT22;66030;53.582;9.746;2022-12-18T07:16:09;-3.50;99.90
21348;DHT22;66030;53.582;9.746;2022-12-18T07:18:46;-3.50;99.90
21348;DHT22;66030;53.582;9.746;2022-12-18T07:21:16;-3.20;99.90
21348;DHT22;66030;53.582;9.746;2022-12-18T07:23:44;-3.30;99.90
21348;DHT22;66030;53.582;9.746;2022-12-18T07:26:17;-3.30;99.90
21348;DHT22;66030;53.582;9.746;2022-12-18T07:28:46;-3.40;99.90
21348;DHT22;66030;53.582;9.746;2022-12-18T07:31:17;-3.30;99.90
21348;DHT22;66030;53.582;9.746;2022-12-18T07:33:48;-3.40;99.90
21348;DHT22;66030;53.582;9.746;2022-12-18T07:36:17;-3.30;99.90
21348;DHT22;66030;53.582;9.746;2022-12-18T07:41:21;-3.40;99.90
21348;DHT22;66030;53.582;9.746;2022-12-18T07:43:51;-3.30;99.90
21348;DHT22;66030;53.582;9.746;2022-12-18T07:46:39;-3.20;99.90
21348;DHT22;66030;53.582;9.746;2022-12-18T07:49:07;-3.20;99.90
21348;DHT22;66030;53.582;9.746;2022-12-18T07:51:35;-3.30;99.90
21348;DHT22;66030;53.582;9.746;2022-12-18T07:54:03;-3.30;99.90
21348;DHT22;66030;53.582;9.746;2022-12-18T07:56:31;-3.40;99.90
21348;DHT22;66030;53.582;9.746;2022-12-18T07:59:02;-3.30;99.90
21348;DHT22;66030;53.582;9.746;2022-12-18T08:04:36;-3.30;99.90
21348;DHT22;66030;53.582;9.746;2022-12-18T08:07:04;-3.20;99.90
21348;DHT22;66030;53.582;9.746;2022-12-18T08:09:32;-3.10;99.90
21348;DHT22;66030;53.582;9.746;2022-12-18T08:12:00;-2.80;99.90
21348;DHT22;66030;53.582;9.746;2022-12-18T08:14:28;-2.70;99.90
21348;DHT22;66030;53.582;9.746;2022-12-18T08:16:56;-2.60;99.90
21348;DHT22;66030;53.582;9.746;2022-12-18T08:19:24;-2.50;99.90
21348;DHT22;66030;53.582;9.746;2022-12-18T08:21:54;-2.50;99.90
21348;DHT22;66030;53.582;9.746;2022-12-18T08:24:22;-2.50;99.90
21348;DHT22;66030;53.582;9.746;2022-12-18T08:26:50;-2.40;99.90
21348;DHT22;66030;53.582;9.746;2022-12-18T08:29:38;-2.40;99.90
21348;DHT22;66030;53.582;9.746;2022-12-18T08:32:06;-2.40;99.90
21348;DHT22;66030;53.582;9.746;2022-12-18T08:34:34;-2.40;99.90
21348;DHT22;66030;53.582;9.746;2022-12-18T08:37:04;-2.50;99.90
21348;DHT22;66030;53.582;9.746;2022-12-18T08:39:32;-2.50;99.90
21348;DHT22;66030;53.582;9.746;2022-12-18T08:42:01;-2.40;99.90
21348;DHT22;66030;53.582;9.746;2022-12-18T08:44:46;-2.40;99.90
21348;DHT22;66030;53.582;9.746;2022-12-18T08:47:14;-2.20;99.90
21348;DHT22;66030;53.582;9.746;2022-12-18T08:49:42;-2.30;99.90
21348;DHT22;66030;53.582;9.746;2022-12-18T08:52:11;-2.30;99.90
21348;DHT22;66030;53.582;9.746;2022-12-18T08:54:39;-2.20;99.90
21348;DHT22;66030;53.582;9.746;2022-12-18T08:57:07;-2.20;99.90
21348;DHT22;66030;53.582;9.746;2022-12-18T08:59:35;-2.20;99.90
21348;DHT22;66030;53.582;9.746;2022-12-18T09:04:54;-2.20;99.90
21348;DHT22;66030;53.582;9.746;2022-12-18T09:07:24;-1.90;99.90
21348;DHT22;66030;53.582;9.746;2022-12-18T09:09:52;-1.90;99.90
21348;DHT22;66030;53.582;9.746;2022-12-18T09:12:20;-2.00;99.90
21348;DHT22;66030;53.582;9.746;2022-12-18T09:14:48;-1.90;99.90
21348;DHT22;66030;53.582;9.746;2022-12-18T09:17:16;-1.80;99.90
21348;DHT22;66030;53.582;9.746;2022-12-18T09:19:44;-1.80;99.90
21348;DHT22;66030;53.582;9.746;2022-12-18T09:22:12;-1.60;99.90
21348;DHT22;66030;53.582;9.746;2022-12-18T09:24:41;-1.60;99.90
21348;DHT22;66030;53.582;9.746;2022-12-18T09:27:09;-1.60;99.90
21348;DHT22;66030;53.582;9.746;2022-12-18T09:29:36;-1.40;99.90
21348;DHT22;66030;53.582;9.746;2022-12-18T09:32:05;-1.30;99.90
21348;DHT22;66030;53.582;9.746;2022-12-18T09:34:33;-1.40;99.90
21348;DHT22;66030;53.582;9.746;2022-12-18T09:37:00;-1.30;99.90
21348;DHT22;66030;53.582;9.746;2022-12-18T09:39:28;-1.30;99.90
21348;DHT22;66030;53.582;9.746;2022-12-18T09:41:58;-1.20;99.90
21348;DHT22;66030;53.582;9.746;2022-12-18T09:44:28;-1.10;99.90
21348;DHT22;66030;53.582;9.746;2022-12-18T09:47:05;-1.10;99.90
21348;DHT22;66030;53.582;9.746;2022-12-18T09:49:36;-1.10;99.90
21348;DHT22;66030;53.582;9.746;2022-12-18T09:52:11;-1.00;99.90
21348;DHT22;66030;53.582;9.746;2022-12-18T09:54:41;-1.10;99.90
21348;DHT22;66030;53.582;9.746;2022-12-18T09:57:14;-0.80;99.90
21348;DHT22;66030;53.582;9.746;2022-12-18T09:59:46;-0.80;99.90
21348;DHT22;66030;53.582;9.746;2022-12-18T10:02:18;-0.80;99.90
21348;DHT22;66030;53.582;9.746;2022-12-18T10:05:00;-0.90;99.90
21348;DHT22;66030;53.582;9.746;2022-12-18T10:07:36;-0.80;99.90
21348;DHT22;66030;53.582;9.746;2022-12-18T10:10:16;-0.70;99.90
21348;DHT22;66030;53.582;9.746;2022-12-18T10:12:54;-0.70;99.90
21348;DHT22;66030;53.582;9.746;2022-12-18T10:15:36;-0.70;99.90
21348;DHT22;66030;53.582;9.746;2022-12-18T10:18:14;-0.50;99.90
21348;DHT22;66030;53.582;9.746;2022-12-18T10:20:49;-0.40;99.90
21348;DHT22;66030;53.582;9.746;2022-12-18T10:23:22;-0.40;99.90
21348;DHT22;66030;53.582;9.746;2022-12-18T10:25:55;-0.40;99.90
21348;DHT22;66030;53.582;9.746;2022-12-18T10:28:29;-0.40;99.90
21348;DHT22;66030;53.582;9.746;2022-12-18T10:30:58;-0.40;99.90
21348;DHT22;66030;53.582;9.746;2022-12-18T10:33:29;-0.30;99.90
21348;DHT22;66030;53.582;9.746;2022-12-18T10:35:58;-0.20;99.90
21348;DHT22;66030;53.582;9.746;2022-12-18T10:38:28;-0.30;99.90
21348;DHT22;66030;53.582;9.746;2022-12-18T10:40:59;-0.20;99.90
21348;DHT22;66030;53.582;9.746;2022-12-18T10:47:18;-0.10;99.90
21348;DHT22;66030;53.582;9.746;2022-12-18T10:49:49;0.20;99.90
21348;DHT22;66030;53.582;9.746;2022-12-18T10:52:20;0.00;99.90
21348;DHT22;66030;53.582;9.746;2022-12-18T10:54:50;0.00;99.90
21348;DHT22;66030;53.582;9.746;2022-12-18T10:57:31;0.00;99.90
21348;DHT22;66030;53.582;9.746;2022-12-18T11:00:20;-0.10;99.90
21348;DHT22;66030;53.582;9.746;2022-12-18T11:02:50;-0.10;99.90
21348;DHT22;66030;53.582;9.746;2022-12-18T11:05:26;0.00;99.90
21348;DHT22;66030;53.582;9.746;2022-12-18T11:07:55;0.10;99.90
21348;DHT22;66030;53.582;9.746;2022-12-18T11:10:28;0.20;99.90
21348;DHT22;66030;53.582;9.746;2022-12-18T11:13:12;0.30;99.90
21348;DHT22;66030;53.582;9.746;2022-12-18T11:15:43;0.40;99.90
21348;DHT22;66030;53.582;9.746;2022-12-18T11:18:20;0.50;99.90
21348;DHT22;66030;53.582;9.746;2022-12-18T11:20:51;0.60;99.90
21348;DHT22;66030;53.582;9.746;2022-12-18T11:23:24;0.60;99.90
21348;DHT22;66030;53.582;9.746;2022-12-18T11:25:55;0.60;99.90
21348;DHT22;66030;53.582;9.746;2022-12-18T11:28:34;0.60;99.90
21348;DHT22;66030;53.582;9.746;2022-12-18T11:31:16;0.60;99.90
21348;DHT22;66030;53.582;9.746;2022-12-18T11:33:49;0.70;99.90
21348;DHT22;66030;53.582;9.746;2022-12-18T11:36:42;0.80;99.90
21348;DHT22;66030;53.582;9.746;2022-12-18T11:39:17;0.70;99.90
21348;DHT22;66030;53.582;9.746;2022-12-18T11:41:52;0.60;99.90
21348;DHT22;66030;53.582;9.746;2022-12-18T11:44:46;0.80;99.90
21348;DHT22;66030;53.582;9.746;2022-12-18T11:47:22;1.00;99.90
21348;DHT22;66030;53.582;9.746;2022-12-18T11:50:10;1.20;99.90
21348;DHT22;66030;53.582;9.746;2022-12-18T11:52:41;1.10;99.90
21348;DHT22;66030;53.582;9.746;2022-12-18T11:55:11;1.00;99.90
21348;DHT22;66030;53.582;9.746;2022-12-18T11:57:47;1.00;99.90
21348;DHT22;66030;53.582;9.746;2022-12-18T12:00:18;0.90;99.90
21348;DHT22;66030;53.582;9.746;2022-12-18T12:03:08;0.90;99.90
21348;DHT22;66030;53.582;9.746;2022-12-18T12:05:53;1.10;99.90
21348;DHT22;66030;53.582;9.746;2022-12-18T12:08:35;1.10;99.90
21348;DHT22;66030;53.582;9.746;2022-12-18T12:11:09;1.10;99.90
21348;DHT22;66030;53.582;9.746;2022-12-18T12:13:48;1.20;99.90
21348;DHT22;66030;53.582;9.746;2022-12-18T12:16:22;1.10;99.90
21348;DHT22;66030;53.582;9.746;2022-12-18T12:19:06;1.00;99.90
21348;DHT22;66030;53.582;9.746;2022-12-18T12:21:40;1.00;99.90
21348;DHT22;66030;53.582;9.746;2022-12-18T12:24:20;0.90;99.90
21348;DHT22;66030;53.582;9.746;2022-12-18T12:26:58;1.00;99.90
21348;DHT22;66030;53.582;9.746;2022-12-18T12:29:40;1.10;99.90
21348;DHT22;66030;53.582;9.746;2022-12-18T12:32:17;1.00;99.90
21348;DHT22;66030;53.582;9.746;2022-12-18T12:34:56;1.10;99.90
21348;DHT22;66030;53.582;9.746;2022-12-18T12:37:42;1.00;99.90
21348;DHT22;66030;53.582;9.746;2022-12-18T12:40:18;1.20;99.90
21348;DHT22;66030;53.582;9.746;2022-12-18T12:43:19;1.20;99.90
21348;DHT22;66030;53.582;9.746;2022-12-18T12:45:52;1.30;99.90
21348;DHT22;66030;53.582;9.746;2022-12-18T12:48:31;1.20;99.90
21348;DHT22;66030;53.582;9.746;2022-12-18T12:51:02;1.20;99.90
21348;DHT22;66030;53.582;9.746;2022-12-18T12:53:36;1.10;99.90
21348;DHT22;66030;53.582;9.746;2022-12-18T12:56:08;1.20;99.90
21348;DHT22;66030;53.582;9.746;2022-12-18T12:58:45;1.60;99.90
21348;DHT22;66030;53.582;9.746;2022-12-18T13:01:22;1.40;99.90
21348;DHT22;66030;53.582;9.746;2022-12-18T13:03:59;1.40;99.90
21348;DHT22;66030;53.582;9.746;2022-12-18T13:06:35;1.40;99.90
21348;DHT22;66030;53.582;9.746;2022-12-18T13:09:11;1.40;99.90
21348;DHT22;66030;53.582;9.746;2022-12-18T13:11:41;1.40;99.90
21348;DHT22;66030;53.582;9.746;2022-12-18T13:14:29;1.40;99.90
21348;DHT22;66030;53.582;9.746;2022-12-18T13:17:25;1.40;99.90
21348;DHT22;66030;53.582;9.746;2022-12-18T13:20:10;1.30;99.90
21348;DHT22;66030;53.582;9.746;2022-12-18T13:22:42;1.20;99.90
21348;DHT22;66030;53.582;9.746;2022-12-18T13:25:39;1.10;99.90
21348;DHT22;66030;53.582;9.746;2022-12-18T13:28:12;1.10;99.90
21348;DHT22;66030;53.582;9.746;2022-12-18T13:30:52;0.90;99.90
21348;DHT22;66030;53.582;9.746;2022-12-18T13:33:47;0.80;99.90
21348;DHT22;66030;53.582;9.746;2022-12-18T13:36:38;0.80;99.90
21348;DHT22;66030;53.582;9.746;2022-12-18T13:39:25;0.70;99.90
21348;DHT22;66030;53.582;9.746;2022-12-18T13:42:38;0.70;99.90
21348;DHT22;66030;53.582;9.746;2022-12-18T13:45:45;0.80;99.90
21348;DHT22;66030;53.582;9.746;2022-12-18T13:48:19;0.80;99.90
21348;DHT22;66030;53.582;9.746;2022-12-18T13:50:52;0.80;99.90
21348;DHT22;66030;53.582;9.746;2022-12-18T13:53:22;0.70;99.90
21348;DHT22;66030;53.582;9.746;2022-12-18T13:55:53;0.70;99.90
21348;DHT22;66030;53.582;9.746;2022-12-18T13:58:22;0.70;99.90
21348;DHT22;66030;53.582;9.746;2022-12-18T14:00:50;0.60;99.90
21348;DHT22;66030;53.582;9.746;2022-12-18T14:03:21;0.60;99.90
21348;DHT22;66030;53.582;9.746;2022-12-18T14:05:56;0.60;99.90
21348;DHT22;66030;53.582;9.746;2022-12-18T14:08:32;0.60;99.90
21348;DHT22;66030;53.582;9.746;2022-12-18T14:11:03;0.60;99.90
21348;DHT22;66030;53.582;9.746;2022-12-18T14:13:36;0.50;99.90
21348;DHT22;66030;53.582;9.746;2022-12-18T14:16:06;0.40;99.90
21348;DHT22;66030;53.582;9.746;2022-12-18T14:18:44;0.30;99.90
21348;DHT22;66030;53.582;9.746;2022-12-18T14:21:19;0.40;99.90
21348;DHT22;66030;53.582;9.746;2022-12-18T14:23:48;0.40;99.90
21348;DHT22;66030;53.582;9.746;2022-12-18T14:26:23;0.40;99.90
21348;DHT22;66030;53.582;9.746;2022-12-18T14:28:55;0.40;99.90
21348;DHT22;66030;53.582;9.746;2022-12-18T14:31:25;0.30;99.90
21348;DHT22;66030;53.582;9.746;2022-12-18T14:33:55;0.20;99.90
21348;DHT22;66030;53.582;9.746;2022-12-18T14:36:24;0.00;99.90
21348;DHT22;66030;53.582;9.746;2022-12-18T14:38:54;-0.10;99.90
21348;DHT22;66030;53.582;9.746;2022-12-18T14:41:23;-0.10;99.90
21348;DHT22;66030;53.582;9.746;2022-12-18T14:43:53;-0.20;99.90
21348;DHT22;66030;53.582;9.746;2022-12-18T14:46:32;-0.20;99.90
21348;DHT22;66030;53.582;9.746;2022-12-18T14:49:03;-0.20;99.90
21348;DHT22;66030;53.582;9.746;2022-12-18T14:51:33;-0.20;99.90
21348;DHT22;66030;53.582;9.746;2022-12-18T14:54:03;-0.20;99.90
21348;DHT22;66030;53.582;9.746;2022-12-18T14:56:36;-0.20;99.90
21348;DHT22;66030;53.582;9.746;2022-12-18T14:59:05;-0.20;99.90
21348;DHT22;66030;53.582;9.746;2022-12-18T15:01:48;-0.30;99.90
21348;DHT22;66030;53.582;9.746;2022-12-18T15:04:26;-0.60;99.90
21348;DHT22;66030;53.582;9.746;2022-12-18T15:07:11;-0.60;99.90
21348;DHT22;66030;53.582;9.746;2022-12-18T15:09:42;-0.70;99.90
21348;DHT22;66030;53.582;9.746;2022-12-18T15:12:24;-0.70;99.90
21348;DHT22;66030;53.582;9.746;2022-12-18T15:14:53;-0.70;99.90
21348;DHT22;66030;53.582;9.746;2022-12-18T15:17:23;-0.60;99.90
21348;DHT22;66030;53.582;9.746;2022-12-18T15:19:58;-0.60;99.90
21348;DHT22;66030;53.582;9.746;2022-12-18T15:22:27;-0.60;99.90
21348;DHT22;66030;53.582;9.746;2022-12-18T15:24:56;-0.90;99.90
21348;DHT22;66030;53.582;9.746;2022-12-18T15:27:28;-0.80;99.90
21348;DHT22;66030;53.582;9.746;2022-12-18T15:30:17;-0.80;99.90
21348;DHT22;66030;53.582;9.746;2022-12-18T15:32:47;-0.80;99.90
21348;DHT22;66030;53.582;9.746;2022-12-18T15:35:18;-0.80;99.90
21348;DHT22;66030;53.582;9.746;2022-12-18T15:37:46;-0.70;99.90
21348;DHT22;66030;53.582;9.746;2022-12-18T15:40:15;-0.60;99.90
21348;DHT22;66030;53.582;9.746;2022-12-18T15:42:45;-0.80;99.90
21348;DHT22;66030;53.582;9.746;2022-12-18T15:45:31;-0.70;99.90
21348;DHT22;66030;53.582;9.746;2022-12-18T15:48:00;-0.80;99.90
21348;DHT22;66030;53.582;9.746;2022-12-18T15:50:28;-0.80;99.90
21348;DHT22;66030;53.582;9.746;2022-12-18T15:52:56;-0.80;99.90
21348;DHT22;66030;53.582;9.746;2022-12-18T15:55:24;-0.70;99.90
21348;DHT22;66030;53.582;9.746;2022-12-18T15:58:10;-0.70;99.90
21348;DHT22;66030;53.582;9.746;2022-12-18T16:00:40;-0.80;99.90
21348;DHT22;66030;53.582;9.746;2022-12-18T16:03:10;-0.70;99.90
21348;DHT22;66030;53.582;9.746;2022-12-18T16:05:38;-0.70;99.90
21348;DHT22;66030;53.582;9.746;2022-12-18T16:08:06;-0.70;99.90
21348;DHT22;66030;53.582;9.746;2022-12-18T16:10:37;-0.70;99.90
21348;DHT22;66030;53.582;9.746;2022-12-18T16:13:06;-0.70;99.90
21348;DHT22;66030;53.582;9.746;2022-12-18T16:15:34;-0.70;99.90
21348;DHT22;66030;53.582;9.746;2022-12-18T16:18:02;-0.70;99.90
21348;DHT22;66030;53.582;9.746;2022-12-18T16:20:31;-0.80;99.90
21348;DHT22;66030;53.582;9.746;2022-12-18T16:22:59;-0.80;99.90
21348;DHT22;66030;53.582;9.746;2022-12-18T16:25:28;-0.70;99.90